Time;durP1;ratioP1;P1;durP2;ratioP2;P2;SDS_P1;SDS_P2;PMS_P1;PMS_P2;Temp;Humidity;BMP_temperature;BMP_pressure;BME280_temperature;BME280_humidity;BME280_pressure;Samples;Min_cycle;Max_cycle;Signal;HPM_P1;HPM_P2
2021/07/09 00:02:11;;;;;;;;;;;19.40;90.70;;;;;;4307671;33;42187;-82
2021/07/09 00:04:41;;;;;;;;;;;19.40;91.10;;;;;;4316136;33;20024;-82
2021/07/09 00:07:08;;;;;;;;;;;19.40;90.80;;;;;;4316117;33;43509;-82
2021/07/09 00:09:38;;;;;;;;;;;19.40;90.80;;;;;;4304904;33;19997;-82
2021/07/09 00:12:06;;;;;;;;;;;19.30;90.70;;;;;;4316042;33;44654;-82
2021/07/09 00:14:36;;;;;;;;;;;19.40;90.80;;;;;;4316378;33;30894;-82
2021/07/09 00:17:06;;;;;;;;;;;19.30;90.80;;;;;;4315949;33;44655;-82
2021/07/09 00:19:33;;;;;;;;;;;19.30;90.80;;;;;;4315899;33;43087;-82
2021/07/09 00:22:03;;;;;;;;;;;19.40;90.80;;;;;;4317020;33;38552;-82
2021/07/09 00:24:31;;;;;;;;;;;19.30;90.80;;;;;;4304114;33;39974;-82
2021/07/09 00:27:03;;;;;;;;;;;19.30;90.80;;;;;;4303917;33;45019;-82
2021/07/09 00:29:30;;;;;;;;;;;19.30;90.80;;;;;;4316093;33;36646;-82
2021/07/09 00:32:01;;;;;;;;;;;19.30;90.80;;;;;;4315794;33;44598;-83
2021/07/09 00:34:31;;;;;;;;;;;19.30;90.80;;;;;;4304881;33;20372;-82
2021/07/09 00:36:58;;;;;;;;;;;19.30;90.90;;;;;;4315556;33;34989;-83
2021/07/09 00:39:29;;;;;;;;;;;19.30;90.90;;;;;;4317979;33;20002;-82
2021/07/09 00:41:58;;;;;;;;;;;19.30;90.90;;;;;;4316919;33;39410;-82
2021/07/09 00:44:28;;;;;;;;;;;19.30;90.90;;;;;;4304062;33;28619;-83
2021/07/09 00:46:55;;;;;;;;;;;19.30;90.90;;;;;;4303596;33;43096;-83
2021/07/09 00:49:22;;;;;;;;;;;19.30;90.90;;;;;;4315295;33;41187;-83
2021/07/09 00:51:53;;;;;;;;;;;19.30;90.90;;;;;;4315626;33;31183;-82
2021/07/09 00:54:20;;;;;;;;;;;19.30;91.00;;;;;;4316260;33;20010;-82
2021/07/09 00:56:50;;;;;;;;;;;19.20;90.90;;;;;;4315336;33;44580;-83
2021/07/09 00:59:21;;;;;;;;;;;19.20;91.00;;;;;;4291566;33;38136;-83
2021/07/09 01:01:50;;;;;;;;;;;19.20;91.00;;;;;;4316192;33;44839;-83
2021/07/09 01:04:17;;;;;;;;;;;19.20;91.00;;;;;;4302940;33;36555;-82
2021/07/09 01:06:45;;;;;;;;;;;19.20;91.00;;;;;;4315892;33;26300;-82
2021/07/09 01:09:14;;;;;;;;;;;19.30;91.00;;;;;;4315243;33;44606;-82
2021/07/09 01:11:45;;;;;;;;;;;19.20;91.00;;;;;;4316712;33;30581;-83
2021/07/09 01:14:12;;;;;;;;;;;19.20;91.00;;;;;;4303031;33;44265;-83
2021/07/09 01:16:39;;;;;;;;;;;19.20;91.00;;;;;;4315543;33;44402;-82
2021/07/09 01:19:07;;;;;;;;;;;19.20;91.00;;;;;;4304152;33;20006;-82
2021/07/09 01:21:34;;;;;;;;;;;19.20;91.00;;;;;;4317305;33;20479;-82
2021/07/09 01:24:04;;;;;;;;;;;19.20;91.00;;;;;;4316123;33;20016;-83
2021/07/09 01:26:35;;;;;;;;;;;19.20;91.00;;;;;;4304066;33;20002;-83
2021/07/09 01:29:03;;;;;;;;;;;19.20;91.00;;;;;;4316052;33;20017;-82
2021/07/09 01:31:33;;;;;;;;;;;19.20;91.10;;;;;;4317059;33;20331;-82
2021/07/09 01:34:03;;;;;;;;;;;19.20;91.00;;;;;;4316239;33;44449;-82
2021/07/09 01:36:31;;;;;;;;;;;19.10;91.00;;;;;;4316110;33;39933;-82
2021/07/09 01:39:00;;;;;;;;;;;19.10;91.00;;;;;;4314740;33;33948;-83
2021/07/09 01:41:30;;;;;;;;;;;19.10;91.00;;;;;;4303172;33;40169;-83
2021/07/09 01:44:02;;;;;;;;;;;19.10;91.00;;;;;;4315709;33;40437;-82
2021/07/09 01:46:32;;;;;;;;;;;19.10;91.00;;;;;;4315448;33;32645;-83
2021/07/09 01:49:03;;;;;;;;;;;19.10;91.00;;;;;;4316822;33;20049;-82
2021/07/09 01:51:33;;;;;;;;;;;19.10;91.10;;;;;;4316100;33;40088;-82
2021/07/09 01:54:00;;;;;;;;;;;19.10;91.10;;;;;;4302756;33;37739;-82
2021/07/09 01:56:27;;;;;;;;;;;19.10;91.10;;;;;;4314642;33;43956;-83
2021/07/09 01:58:54;;;;;;;;;;;19.10;91.10;;;;;;4302342;33;43622;-82
2021/07/09 02:01:26;;;;;;;;;;;19.10;91.10;;;;;;4314802;33;30907;-82
2021/07/09 02:03:59;;;;;;;;;;;19.10;91.10;;;;;;4302597;33;45037;-83
2021/07/09 02:06:26;;;;;;;;;;;19.00;91.10;;;;;;4303058;33;43473;-83
2021/07/09 02:08:53;;;;;;;;;;;19.10;91.10;;;;;;4302831;33;34249;-82
2021/07/09 02:11:20;;;;;;;;;;;19.00;91.00;;;;;;4315870;33;40371;-83
2021/07/09 02:13:47;;;;;;;;;;;19.00;91.00;;;;;;4315911;33;41784;-82
2021/07/09 02:16:15;;;;;;;;;;;19.00;91.00;;;;;;4315820;33;41973;-82
2021/07/09 02:18:44;;;;;;;;;;;19.00;91.00;;;;;;4302187;33;43285;-83
2021/07/09 02:21:16;;;;;;;;;;;19.00;91.00;;;;;;4315400;33;31700;-82
2021/07/09 02:23:46;;;;;;;;;;;19.00;91.00;;;;;;4315641;33;37629;-82
2021/07/09 02:26:16;;;;;;;;;;;19.00;91.10;;;;;;4314669;33;45015;-82
2021/07/09 02:28:43;;;;;;;;;;;19.00;91.10;;;;;;4319768;33;20065;-83
2021/07/09 02:31:13;;;;;;;;;;;19.00;91.10;;;;;;4318553;33;40767;-83
2021/07/09 02:33:43;;;;;;;;;;;19.00;91.10;;;;;;4305097;33;39096;-83
2021/07/09 02:36:15;;;;;;;;;;;18.90;91.10;;;;;;4305057;33;43310;-83
2021/07/09 02:38:45;;;;;;;;;;;18.90;91.10;;;;;;4306351;33;20014;-83
2021/07/09 02:41:12;;;;;;;;;;;18.90;91.10;;;;;;4317272;33;43637;-83
2021/07/09 02:43:39;;;;;;;;;;;18.90;91.10;;;;;;4318344;33;43691;-83
2021/07/09 02:46:06;;;;;;;;;;;18.90;91.10;;;;;;4318342;33;44621;-83
2021/07/09 02:48:34;;;;;;;;;;;18.90;91.10;;;;;;4317210;33;43488;-83
2021/07/09 02:51:03;;;;;;;;;;;18.90;91.10;;;;;;4305246;33;44626;-82
2021/07/09 02:53:32;;;;;;;;;;;18.90;91.10;;;;;;4318252;33;43629;-82
2021/07/09 02:56:00;;;;;;;;;;;18.90;91.10;;;;;;4316612;33;43609;-81
2021/07/09 02:58:31;;;;;;;;;;;18.90;91.10;;;;;;4318113;33;41593;-83
2021/07/09 03:00:58;;;;;;;;;;;18.90;91.10;;;;;;4305713;33;29859;-82
2021/07/09 03:03:29;;;;;;;;;;;18.90;91.10;;;;;;4317307;33;23121;-82
2021/07/09 03:05:58;;;;;;;;;;;18.80;91.10;;;;;;4305786;33;20049;-82
2021/07/09 03:08:28;;;;;;;;;;;18.80;91.20;;;;;;4316925;33;44982;-82
2021/07/09 03:10:55;;;;;;;;;;;18.80;91.20;;;;;;4304878;33;43621;-82
2021/07/09 03:13:22;;;;;;;;;;;18.80;91.20;;;;;;4318752;33;20433;-83
2021/07/09 03:15:52;;;;;;;;;;;18.80;91.20;;;;;;4317614;33;38165;-83
2021/07/09 03:18:19;;;;;;;;;;;18.80;91.20;;;;;;4304215;33;44685;-82
2021/07/09 03:20:47;;;;;;;;;;;18.80;91.20;;;;;;4316833;33;43980;-82
2021/07/09 03:23:14;;;;;;;;;;;18.80;91.20;;;;;;4316861;33;26321;-83
2021/07/09 03:25:41;;;;;;;;;;;18.80;91.20;;;;;;4318978;33;20355;-82
2021/07/09 03:28:08;;;;;;;;;;;18.80;91.30;;;;;;4316679;33;40369;-82
2021/07/09 03:30:38;;;;;;;;;;;18.80;91.30;;;;;;4304681;33;35474;-82
2021/07/09 03:33:08;;;;;;;;;;;18.70;91.30;;;;;;4304552;33;44207;-82
2021/07/09 03:35:35;;;;;;;;;;;18.70;91.30;;;;;;4318121;33;27833;-82
2021/07/09 03:38:05;;;;;;;;;;;18.70;91.30;;;;;;4316666;33;20411;-83
2021/07/09 03:40:35;;;;;;;;;;;18.70;91.40;;;;;;4305245;33;20411;-83
2021/07/09 03:43:05;;;;;;;;;;;18.70;91.40;;;;;;4304019;33;41212;-82
2021/07/09 03:45:35;;;;;;;;;;;18.70;91.40;;;;;;4305763;33;20014;-82
2021/07/09 03:48:02;;;;;;;;;;;18.70;91.40;;;;;;4316095;33;40038;-82
2021/07/09 03:50:29;;;;;;;;;;;18.70;91.40;;;;;;4316487;33;38651;-83
2021/07/09 03:52:57;;;;;;;;;;;18.60;91.40;;;;;;4315848;33;44039;-82
2021/07/09 03:55:24;;;;;;;;;;;18.60;91.50;;;;;;4304457;33;40045;-82
2021/07/09 03:57:53;;;;;;;;;;;18.60;91.50;;;;;;4317644;33;33976;-83
2021/07/09 04:00:22;;;;;;;;;;;18.60;91.50;;;;;;4318367;33;20419;-83
2021/07/09 04:02:50;;;;;;;;;;;18.60;91.50;;;;;;4316015;33;31111;-82
2021/07/09 04:05:19;;;;;;;;;;;18.60;91.50;;;;;;4318110;33;20434;-82
2021/07/09 04:07:49;;;;;;;;;;;18.60;91.60;;;;;;4304645;33;20018;-83
2021/07/09 04:10:20;;;;;;;;;;;18.60;91.60;;;;;;4318720;33;20045;-82
2021/07/09 04:12:52;;;;;;;;;;;18.60;91.60;;;;;;4316111;33;45239;-82
2021/07/09 04:15:20;;;;;;;;;;;18.60;91.60;;;;;;4303793;33;43564;-82
2021/07/09 04:17:47;;;;;;;;;;;18.60;91.60;;;;;;4304568;33;20069;-82
2021/07/09 04:20:15;;;;;;;;;;;18.60;91.60;;;;;;4317829;33;20018;-82
2021/07/09 04:22:42;;;;;;;;;;;18.50;91.60;;;;;;4317455;33;20057;-82
2021/07/09 04:25:11;;;;;;;;;;;18.50;91.60;;;;;;4316828;33;44074;-82
2021/07/09 04:27:39;;;;;;;;;;;18.50;91.70;;;;;;4305005;33;20601;-82
2021/07/09 04:30:12;;;;;;;;;;;18.50;91.70;;;;;;4317451;33;20047;-82
2021/07/09 04:32:39;;;;;;;;;;;18.50;91.60;;;;;;4316899;33;43948;-82
2021/07/09 04:35:10;;;;;;;;;;;18.50;91.60;;;;;;4304718;33;20022;-81
2021/07/09 04:37:39;;;;;;;;;;;18.50;91.70;;;;;;4315615;33;42015;-82
2021/07/09 04:40:09;;;;;;;;;;;18.50;91.70;;;;;;4303050;33;44748;-82
2021/07/09 04:42:36;;;;;;;;;;;18.50;91.70;;;;;;4303554;33;45424;-81
2021/07/09 04:45:06;;;;;;;;;;;18.50;91.70;;;;;;4303043;33;40676;-82
2021/07/09 04:47:36;;;;;;;;;;;18.50;91.70;;;;;;4316055;33;20006;-82
2021/07/09 04:50:07;;;;;;;;;;;18.50;91.70;;;;;;4315841;33;43894;-82
2021/07/09 04:52:43;;;;;;;;;;;18.50;91.70;;;;;;4315660;33;43546;-82
2021/07/09 04:55:10;;;;;;;;;;;18.50;91.60;;;;;;4316774;33;41699;-82
2021/07/09 04:57:37;;;;;;;;;;;18.50;91.60;;;;;;4315992;33;44480;-82
2021/07/09 05:00:05;;;;;;;;;;;18.50;91.60;;;;;;4291250;33;44054;-82
2021/07/09 05:02:35;;;;;;;;;;;18.50;91.70;;;;;;4315007;33;43820;-82
2021/07/09 05:05:04;;;;;;;;;;;18.50;91.70;;;;;;4303726;33;21233;-81
2021/07/09 05:07:36;;;;;;;;;;;18.50;91.70;;;;;;4317560;33;20002;-82
2021/07/09 05:10:04;;;;;;;;;;;18.50;91.70;;;;;;4316141;33;20005;-82
2021/07/09 05:12:33;;;;;;;;;;;18.50;91.70;;;;;;4291781;33;24079;-82
2021/07/09 05:15:04;;;;;;;;;;;18.40;91.70;;;;;;4315486;33;40930;-82
2021/07/09 05:17:31;;;;;;;;;;;18.40;91.70;;;;;;4317189;33;20020;-82
2021/07/09 05:19:58;;;;;;;;;;;18.40;91.70;;;;;;4303119;33;44882;-82
2021/07/09 05:22:26;;;;;;;;;;;18.40;91.70;;;;;;4316009;33;20010;-82
2021/07/09 05:24:54;;;;;;;;;;;18.40;91.80;;;;;;4316492;33;33264;-82
2021/07/09 05:27:23;;;;;;;;;;;18.40;91.80;;;;;;4314619;33;43454;-82
2021/07/09 05:29:50;;;;;;;;;;;18.40;91.80;;;;;;4316972;33;20060;-82
2021/07/09 05:32:20;;;;;;;;;;;18.40;91.80;;;;;;4303834;33;20021;-82
2021/07/09 05:34:48;;;;;;;;;;;18.40;91.80;;;;;;4291759;33;20016;-82
2021/07/09 05:37:18;;;;;;;;;;;18.40;91.80;;;;;;4316100;33;20006;-83
2021/07/09 05:39:47;;;;;;;;;;;18.40;91.80;;;;;;4315742;33;39588;-82
2021/07/09 05:42:17;;;;;;;;;;;18.40;91.90;;;;;;4316211;33;35436;-82
2021/07/09 05:44:53;;;;;;;;;;;18.40;91.90;;;;;;4303303;33;19998;-82
2021/07/09 05:47:20;;;;;;;;;;;18.40;91.90;;;;;;4302372;33;43434;-81
2021/07/09 05:49:48;;;;;;;;;;;18.40;91.90;;;;;;4317154;33;20355;-82
2021/07/09 05:52:15;;;;;;;;;;;18.30;91.90;;;;;;4316047;33;42450;-82
2021/07/09 05:54:42;;;;;;;;;;;18.30;91.90;;;;;;4302764;33;33107;-81
2021/07/09 05:57:12;;;;;;;;;;;18.40;92.00;;;;;;4315723;33;20010;-81
2021/07/09 05:59:39;;;;;;;;;;;18.30;92.00;;;;;;4302731;33;44623;-82
2021/07/09 06:02:07;;;;;;;;;;;18.30;91.90;;;;;;4303700;33;42629;-81
2021/07/09 06:04:35;;;;;;;;;;;18.40;92.00;;;;;;4293417;33;45181;-82
2021/07/09 06:07:03;;;;;;;;;;;18.30;92.00;;;;;;4319057;33;42425;-81
2021/07/09 06:09:34;;;;;;;;;;;18.30;92.00;;;;;;4305094;33;46449;-81
2021/07/09 06:12:01;;;;;;;;;;;18.30;92.00;;;;;;4305953;33;40780;-81
2021/07/09 06:14:29;;;;;;;;;;;18.30;92.00;;;;;;4317875;33;41054;-81
2021/07/09 06:16:56;;;;;;;;;;;18.30;92.00;;;;;;4319090;33;20002;-81
2021/07/09 06:19:23;;;;;;;;;;;18.30;92.00;;;;;;4319394;33;20017;-81
2021/07/09 06:21:56;;;;;;;;;;;18.30;92.10;;;;;;4319464;33;28528;-81
2021/07/09 06:24:23;;;;;;;;;;;18.30;92.10;;;;;;4305290;33;41677;-81
2021/07/09 06:26:50;;;;;;;;;;;18.30;92.10;;;;;;4318106;33;44899;-81
2021/07/09 06:29:20;;;;;;;;;;;18.30;92.10;;;;;;4318288;33;35276;-81
2021/07/09 06:31:49;;;;;;;;;;;18.30;92.10;;;;;;4318807;33;20358;-81
2021/07/09 06:34:16;;;;;;;;;;;18.30;92.10;;;;;;4318740;33;34686;-81
2021/07/09 06:36:43;;;;;;;;;;;18.30;92.10;;;;;;4317548;33;39067;-81
2021/07/09 06:39:11;;;;;;;;;;;18.30;92.10;;;;;;4319661;33;20170;-81
2021/07/09 06:41:38;;;;;;;;;;;18.30;92.10;;;;;;4318271;33;40139;-81
2021/07/09 06:44:06;;;;;;;;;;;18.30;92.10;;;;;;4316838;33;44558;-81
2021/07/09 06:46:33;;;;;;;;;;;18.30;92.10;;;;;;4317994;33;40638;-81
2021/07/09 06:49:03;;;;;;;;;;;18.30;92.20;;;;;;4316950;33;37025;-81
2021/07/09 06:51:30;;;;;;;;;;;18.30;92.20;;;;;;4318532;33;36142;-81
2021/07/09 06:53:57;;;;;;;;;;;18.30;92.20;;;;;;4317357;33;39326;-81
2021/07/09 06:56:24;;;;;;;;;;;18.30;92.20;;;;;;4318531;33;29158;-81
2021/07/09 06:58:51;;;;;;;;;;;18.30;92.20;;;;;;4318351;33;33260;-81
2021/07/09 07:01:25;;;;;;;;;;;18.40;92.20;;;;;;4305504;33;20014;-81
2021/07/09 07:06:26;;;;;;;;;;;18.30;92.20;;;;;;4304438;33;20024;-81
2021/07/09 07:09:06;;;;;;;;;;;18.30;92.20;;;;;;4303224;33;20006;-80
2021/07/09 07:11:36;;;;;;;;;;;18.40;92.30;;;;;;4303533;33;20012;-80
2021/07/09 07:14:06;;;;;;;;;;;18.30;92.20;;;;;;4304617;33;20021;-80
2021/07/09 07:16:38;;;;;;;;;;;18.30;92.20;;;;;;4315582;33;20037;-81
2021/07/09 07:19:05;;;;;;;;;;;18.30;92.20;;;;;;4303258;33;20028;-80
2021/07/09 07:21:33;;;;;;;;;;;18.40;92.30;;;;;;4315068;33;20007;-80
2021/07/09 07:24:03;;;;;;;;;;;18.30;92.30;;;;;;4304136;33;20028;-80
2021/07/09 07:26:30;;;;;;;;;;;18.30;92.30;;;;;;4315159;33;20014;-81
2021/07/09 07:29:00;;;;;;;;;;;18.30;92.20;;;;;;4304804;33;20456;-80
2021/07/09 07:31:27;;;;;;;;;;;18.40;92.30;;;;;;4315156;33;20015;-80
2021/07/09 07:33:55;;;;;;;;;;;18.30;92.20;;;;;;4302880;33;20002;-80
2021/07/09 07:36:25;;;;;;;;;;;18.30;92.20;;;;;;4303274;33;20030;-81
2021/07/09 07:38:52;;;;;;;;;;;18.40;92.20;;;;;;4314917;33;20010;-80
2021/07/09 07:41:20;;;;;;;;;;;18.30;92.20;;;;;;4304466;33;20020;-80
2021/07/09 07:43:47;;;;;;;;;;;18.40;92.20;;;;;;4302869;33;20371;-80
2021/07/09 07:46:15;;;;;;;;;;;18.30;92.10;;;;;;4302995;33;20005;-80
2021/07/09 07:48:43;;;;;;;;;;;18.30;92.10;;;;;;4303124;33;20053;-80
2021/07/09 07:51:13;;;;;;;;;;;18.30;92.10;;;;;;4303681;33;20022;-81
2021/07/09 07:53:45;;;;;;;;;;;18.30;92.10;;;;;;4314983;33;20048;-80
2021/07/09 07:56:13;;;;;;;;;;;18.30;92.10;;;;;;4304219;33;20018;-80
2021/07/09 07:58:42;;;;;;;;;;;18.30;92.10;;;;;;4303673;33;20492;-80
2021/07/09 08:01:10;;;;;;;;;;;18.30;92.10;;;;;;4314799;33;20020;-81
2021/07/09 08:03:37;;;;;;;;;;;18.30;92.10;;;;;;4302479;33;20467;-81
2021/07/09 08:06:05;;;;;;;;;;;18.30;92.10;;;;;;4314490;33;19998;-80
2021/07/09 08:08:35;;;;;;;;;;;18.40;92.10;;;;;;4302455;33;20021;-80
2021/07/09 08:11:03;;;;;;;;;;;18.30;92.00;;;;;;4314910;33;20006;-80
2021/07/09 08:13:30;;;;;;;;;;;18.30;92.00;;;;;;4303674;33;20020;-81
2021/07/09 08:16:00;;;;;;;;;;;18.30;92.10;;;;;;4314299;33;20057;-80
2021/07/09 08:18:28;;;;;;;;;;;18.30;92.00;;;;;;4302689;33;20029;-81
2021/07/09 08:20:57;;;;;;;;;;;18.30;92.10;;;;;;4303311;33;20006;-81
2021/07/09 08:23:26;;;;;;;;;;;18.30;92.10;;;;;;4303617;33;20024;-81
2021/07/09 08:25:53;;;;;;;;;;;18.40;92.10;;;;;;4302271;33;20018;-80
2021/07/09 08:28:24;;;;;;;;;;;18.40;92.00;;;;;;4303550;33;20010;-81
2021/07/09 08:30:54;;;;;;;;;;;18.40;92.00;;;;;;4303631;33;20367;-81
2021/07/09 08:33:24;;;;;;;;;;;18.40;92.10;;;;;;4302405;33;20009;-81
2021/07/09 08:35:51;;;;;;;;;;;18.40;92.10;;;;;;4301893;33;20011;-81
2021/07/09 08:38:22;;;;;;;;;;;18.40;92.00;;;;;;4302000;33;20014;-81
2021/07/09 08:40:49;;;;;;;;;;;18.40;92.00;;;;;;4301972;33;19995;-81
2021/07/09 08:43:34;;;;;;;;;;;18.40;92.00;;;;;;4313361;33;20519;-81
2021/07/09 08:46:01;;;;;;;;;;;18.40;92.00;;;;;;4303314;33;20002;-81
2021/07/09 08:48:29;;;;;;;;;;;18.40;92.00;;;;;;4302885;33;20384;-81
2021/07/09 08:50:57;;;;;;;;;;;18.40;92.00;;;;;;4313951;33;20014;-80
2021/07/09 08:53:24;;;;;;;;;;;18.40;92.00;;;;;;4303094;33;20016;-81
2021/07/09 08:55:54;;;;;;;;;;;18.40;92.00;;;;;;4302169;33;20006;-81
2021/07/09 08:58:24;;;;;;;;;;;18.40;92.00;;;;;;4301766;33;20069;-80
2021/07/09 09:00:52;;;;;;;;;;;18.40;92.10;;;;;;4300569;33;42973;-82
2021/07/09 09:03:20;;;;;;;;;;;18.40;92.10;;;;;;4300642;33;41670;-80
2021/07/09 09:05:48;;;;;;;;;;;18.40;92.10;;;;;;4313819;33;20022;-81
2021/07/09 09:08:17;;;;;;;;;;;18.40;92.10;;;;;;4302757;33;20014;-83
2021/07/09 09:10:46;;;;;;;;;;;18.40;92.20;;;;;;4301995;33;37853;-81
2021/07/09 09:13:17;;;;;;;;;;;18.40;92.20;;;;;;4313750;33;20014;-80
2021/07/09 09:15:52;;;;;;;;;;;18.40;92.20;;;;;;4314077;33;20012;-81
2021/07/09 09:18:54;;;;;;;;;;;18.50;92.20;;;;;;4312715;33;20006;-80
2021/07/09 09:21:23;;;;;;;;;;;18.40;92.20;;;;;;4302152;33;43827;-81
2021/07/09 09:23:50;;;;;;;;;;;18.40;92.20;;;;;;4301694;33;20013;-81
2021/07/09 09:26:42;;;;;;;;;;;18.50;92.20;;;;;;4311533;33;42737;-81
2021/07/09 09:29:11;;;;;;;;;;;18.50;92.20;;;;;;4313287;33;20014;-80
2021/07/09 09:31:39;;;;;;;;;;;18.50;92.30;;;;;;4302042;33;38822;-81
2021/07/09 09:34:07;;;;;;;;;;;18.50;92.20;;;;;;4300536;33;41391;-81
2021/07/09 09:36:34;;;;;;;;;;;18.50;92.20;;;;;;4312695;33;36367;-81
2021/07/09 09:39:02;;;;;;;;;;;18.60;92.20;;;;;;4300726;33;41542;-81
2021/07/09 09:41:30;;;;;;;;;;;18.50;92.20;;;;;;4300678;33;35458;-84
2021/07/09 09:44:11;;;;;;;;;;;18.50;92.20;;;;;;4300596;33;39690;-81
2021/07/09 09:46:38;;;;;;;;;;;18.50;92.20;;;;;;4313702;33;20329;-81
2021/07/09 09:49:05;;;;;;;;;;;18.50;92.20;;;;;;4300155;33;40589;-82
2021/07/09 09:51:36;;;;;;;;;;;18.50;92.20;;;;;;4301105;33;20061;-83
2021/07/09 09:54:04;;;;;;;;;;;18.50;92.20;;;;;;4313672;33;20079;-82
2021/07/09 09:56:39;;;;;;;;;;;18.50;92.30;;;;;;4300348;33;45459;-81
2021/07/09 09:59:14;;;;;;;;;;;18.50;92.30;;;;;;4313629;33;20446;-83
2021/07/09 10:01:45;;;;;;;;;;;18.60;92.30;;;;;;4313601;33;20013;-82
2021/07/09 10:04:12;;;;;;;;;;;18.60;92.30;;;;;;4315890;33;20512;-83
2021/07/09 10:06:40;;;;;;;;;;;18.60;92.30;;;;;;4316323;33;20021;-82
2021/07/09 10:09:07;;;;;;;;;;;18.60;92.30;;;;;;4317135;33;20077;-83
2021/07/09 10:11:36;;;;;;;;;;;18.60;92.30;;;;;;4316897;33;20087;-83
2021/07/09 10:14:04;;;;;;;;;;;18.60;92.30;;;;;;4304033;33;20002;-83
2021/07/09 10:16:34;;;;;;;;;;;18.60;92.30;;;;;;4316403;33;20021;-81
2021/07/09 10:19:02;;;;;;;;;;;18.70;92.30;;;;;;4317012;33;20006;-83
2021/07/09 10:21:29;;;;;;;;;;;18.70;92.20;;;;;;4315523;33;20018;-84
2021/07/09 10:23:56;;;;;;;;;;;18.70;92.20;;;;;;4315534;33;20036;-84
2021/07/09 10:26:23;;;;;;;;;;;18.70;92.20;;;;;;4303499;33;20010;-84
2021/07/09 10:29:11;;;;;;;;;;;18.70;92.20;;;;;;4316347;33;20025;-84
2021/07/09 10:31:39;;;;;;;;;;;18.70;92.20;;;;;;4315249;33;20445;-84
2021/07/09 10:34:25;;;;;;;;;;;18.70;92.20;;;;;;4303789;33;20407;-83
2021/07/09 10:36:54;;;;;;;;;;;18.70;92.20;;;;;;4315588;33;20013;-83
2021/07/09 10:39:40;;;;;;;;;;;18.80;92.20;;;;;;4303750;33;20028;-83
2021/07/09 10:42:11;;;;;;;;;;;18.80;92.20;;;;;;4302572;33;36598;-83
2021/07/09 10:44:54;;;;;;;;;;;18.80;92.20;;;;;;4303651;33;20048;-84
2021/07/09 10:47:21;;;;;;;;;;;18.80;92.10;;;;;;4316578;33;20363;-83
2021/07/09 10:49:49;;;;;;;;;;;18.80;92.10;;;;;;4317750;33;20438;-84
2021/07/09 10:52:35;;;;;;;;;;;18.90;92.20;;;;;;4318211;33;20010;-84
2021/07/09 10:55:22;;;;;;;;;;;18.90;92.10;;;;;;4306233;33;20032;-82
2021/07/09 10:58:08;;;;;;;;;;;18.90;92.50;;;;;;4306211;33;20016;-83
2021/07/09 11:00:41;;;;;;;;;;;18.90;92.40;;;;;;4318394;33;20028;-83
2021/07/09 11:03:08;;;;;;;;;;;18.90;92.10;;;;;;4317793;33;20016;-83
2021/07/09 11:05:43;;;;;;;;;;;18.90;92.10;;;;;;4319428;33;20050;-84
2021/07/09 11:08:30;;;;;;;;;;;19.00;92.10;;;;;;4318009;33;20056;-82
2021/07/09 11:11:01;;;;;;;;;;;19.00;92.00;;;;;;4318224;33;43510;-84
2021/07/09 11:13:41;;;;;;;;;;;19.00;92.00;;;;;;4304662;33;44657;-84
2021/07/09 11:16:21;;;;;;;;;;;19.00;92.00;;;;;;4304496;33;44910;-84
2021/07/09 11:18:59;;;;;;;;;;;19.00;92.00;;;;;;4305140;33;45263;-84
2021/07/09 11:21:31;;;;;;;;;;;19.00;91.90;;;;;;4317941;33;20016;-85
2021/07/09 11:24:03;;;;;;;;;;;19.00;92.00;;;;;;4316895;33;45518;-83
2021/07/09 11:26:32;;;;;;;;;;;19.10;92.00;;;;;;4305719;33;20422;-84
2021/07/09 11:28:59;;;;;;;;;;;19.10;92.00;;;;;;4317651;33;20013;-85
2021/07/09 11:31:36;;;;;;;;;;;19.10;92.00;;;;;;4294022;33;19998;-84
2021/07/09 11:34:05;;;;;;;;;;;19.10;91.90;;;;;;4317736;33;20459;-84
2021/07/09 11:36:59;;;;;;;;;;;19.10;91.90;;;;;;4305001;33;20029;-84
2021/07/09 11:39:30;;;;;;;;;;;19.10;91.90;;;;;;4318325;33;20051;-85
2021/07/09 11:42:02;;;;;;;;;;;19.10;91.90;;;;;;4317169;33;20012;-85
2021/07/09 11:44:30;;;;;;;;;;;19.10;91.90;;;;;;4293114;33;20007;-85
2021/07/09 11:47:04;;;;;;;;;;;19.20;91.90;;;;;;4317023;33;20407;-85
2021/07/09 11:49:36;;;;;;;;;;;19.20;91.90;;;;;;4318606;33;20009;-85
2021/07/09 11:52:07;;;;;;;;;;;19.20;91.80;;;;;;4317406;33;19997;-85
2021/07/09 11:54:36;;;;;;;;;;;19.20;91.80;;;;;;4305387;33;20036;-85
2021/07/09 11:57:07;;;;;;;;;;;19.20;91.80;;;;;;4317078;33;19998;-84
2021/07/09 11:59:38;;;;;;;;;;;19.20;91.70;;;;;;4316882;33;20084;-84
2021/07/09 12:02:09;;;;;;;;;;;19.20;91.70;;;;;;4317018;33;20004;-83
2021/07/09 12:04:38;;;;;;;;;;;19.20;91.70;;;;;;4304611;33;20025;-85
2021/07/09 12:07:12;;;;;;;;;;;19.20;91.70;;;;;;4318223;33;20022;-85
2021/07/09 12:09:39;;;;;;;;;;;19.20;91.70;;;;;;4304985;33;20052;-85
2021/07/09 12:12:06;;;;;;;;;;;19.20;91.70;;;;;;4316389;33;20010;-84
2021/07/09 12:14:48;;;;;;;;;;;19.20;91.70;;;;;;4304826;33;20018;-85
2021/07/09 12:17:15;;;;;;;;;;;19.30;91.70;;;;;;4305317;33;20016;-84
2021/07/09 12:20:00;;;;;;;;;;;19.30;91.60;;;;;;4316577;33;20023;-85
2021/07/09 12:22:29;;;;;;;;;;;19.30;91.60;;;;;;4317157;33;20001;-85
2021/07/09 12:24:56;;;;;;;;;;;19.30;91.60;;;;;;4304453;33;20005;-84
2021/07/09 12:27:23;;;;;;;;;;;19.30;91.60;;;;;;4292485;33;20419;-84
2021/07/09 12:29:51;;;;;;;;;;;19.30;91.60;;;;;;4305047;33;20004;-83
2021/07/09 12:32:19;;;;;;;;;;;19.40;91.70;;;;;;4317692;33;20002;-84
2021/07/09 12:34:48;;;;;;;;;;;19.40;91.70;;;;;;4316674;33;20024;-85
2021/07/09 12:37:22;;;;;;;;;;;19.40;91.70;;;;;;4304509;33;20356;-84
2021/07/09 12:39:50;;;;;;;;;;;19.40;92.00;;;;;;4305496;33;20027;-85
2021/07/09 12:42:32;;;;;;;;;;;19.50;91.60;;;;;;4318027;33;20005;-84
2021/07/09 12:44:59;;;;;;;;;;;19.50;91.60;;;;;;4304850;33;20347;-84
2021/07/09 12:47:27;;;;;;;;;;;19.50;91.50;;;;;;4316434;33;20407;-83
2021/07/09 12:50:14;;;;;;;;;;;19.50;91.50;;;;;;4317336;33;20089;-85
2021/07/09 12:52:42;;;;;;;;;;;19.50;91.50;;;;;;4316965;33;20027;-84
2021/07/09 12:55:28;;;;;;;;;;;19.60;91.50;;;;;;4303786;33;20422;-83
2021/07/09 12:57:55;;;;;;;;;;;19.60;91.50;;;;;;4316547;33;20362;-84
2021/07/09 13:00:46;;;;;;;;;;;19.60;91.40;;;;;;4316605;33;20054;-84
2021/07/09 13:03:23;;;;;;;;;;;19.70;91.50;;;;;;4291784;33;20388;-84
2021/07/09 13:06:06;;;;;;;;;;;19.70;91.40;;;;;;4315747;33;20029;-84
2021/07/09 13:08:34;;;;;;;;;;;19.70;91.30;;;;;;4316842;33;20014;-83
2021/07/09 13:11:09;;;;;;;;;;;19.70;91.40;;;;;;4315843;33;20053;-83
2021/07/09 13:13:38;;;;;;;;;;;19.70;91.40;;;;;;4304425;33;20017;-84
2021/07/09 13:16:06;;;;;;;;;;;19.80;91.40;;;;;;4303914;33;20087;-84
2021/07/09 13:18:34;;;;;;;;;;;19.80;91.40;;;;;;4304484;33;20028;-85
2021/07/09 13:21:06;;;;;;;;;;;19.80;91.30;;;;;;4291566;33;20009;-84
2021/07/09 13:23:39;;;;;;;;;;;19.80;91.30;;;;;;4291963;33;19997;-85
2021/07/09 13:26:11;;;;;;;;;;;19.80;91.30;;;;;;4303986;33;20008;-83
2021/07/09 13:28:46;;;;;;;;;;;19.90;91.30;;;;;;4302771;33;44444;-84
2021/07/09 13:31:14;;;;;;;;;;;19.90;91.30;;;;;;4316342;33;43608;-83
2021/07/09 13:33:42;;;;;;;;;;;19.90;91.20;;;;;;4302766;33;40672;-84
2021/07/09 13:36:14;;;;;;;;;;;19.90;91.20;;;;;;4303291;33;36975;-84
2021/07/09 13:38:43;;;;;;;;;;;19.90;91.20;;;;;;4316182;33;44487;-84
2021/07/09 13:41:10;;;;;;;;;;;20.00;91.30;;;;;;4316015;33;37490;-84
2021/07/09 13:43:37;;;;;;;;;;;20.00;91.30;;;;;;4302805;33;41523;-84
2021/07/09 13:46:05;;;;;;;;;;;20.00;91.30;;;;;;4302915;33;41649;-83
2021/07/09 13:48:32;;;;;;;;;;;20.00;91.20;;;;;;4302574;33;44255;-84
2021/07/09 13:50:59;;;;;;;;;;;20.10;91.30;;;;;;4303472;33;35250;-85
2021/07/09 13:53:27;;;;;;;;;;;20.10;91.20;;;;;;4290613;33;44394;-85
2021/07/09 13:55:54;;;;;;;;;;;20.10;91.20;;;;;;4315015;33;25674;-84
2021/07/09 13:58:21;;;;;;;;;;;20.10;91.10;;;;;;4315162;33;40321;-85
2021/07/09 14:00:49;;;;;;;;;;;20.20;91.20;;;;;;4302319;33;44033;-84
2021/07/09 14:03:18;;;;;;;;;;;20.20;91.20;;;;;;4299957;33;41115;-84
2021/07/09 14:05:45;;;;;;;;;;;20.20;91.20;;;;;;4300074;33;46973;-85
2021/07/09 14:08:13;;;;;;;;;;;20.20;91.10;;;;;;4301541;33;39000;-85
2021/07/09 14:10:40;;;;;;;;;;;20.20;91.10;;;;;;4300097;33;42463;-85
2021/07/09 14:13:07;;;;;;;;;;;20.30;91.10;;;;;;4301363;33;19999;-84
2021/07/09 14:15:35;;;;;;;;;;;20.30;91.10;;;;;;4311983;33;38704;-86
2021/07/09 14:18:03;;;;;;;;;;;20.30;91.10;;;;;;4300167;33;45550;-85
2021/07/09 14:20:30;;;;;;;;;;;20.30;91.10;;;;;;4301389;33;20028;-84
2021/07/09 14:22:57;;;;;;;;;;;20.40;91.00;;;;;;4301495;33;38400;-83
2021/07/09 14:25:25;;;;;;;;;;;20.40;91.00;;;;;;4315959;33;20025;-84
2021/07/09 14:27:52;;;;;;;;;;;20.40;91.00;;;;;;4304096;33;41978;-84
2021/07/09 14:30:20;;;;;;;;;;;20.40;91.00;;;;;;4303098;33;38116;-85
2021/07/09 14:32:50;;;;;;;;;;;20.40;91.00;;;;;;4303205;33;42146;-84
2021/07/09 14:35:19;;;;;;;;;;;20.40;91.00;;;;;;4315277;33;37867;-84